Time;durP1;ratioP1;P1;durP2;ratioP2;P2;SDS_P1;SDS_P2;PMS_P1;PMS_P2;Temp;Humidity;BMP_temperature;BMP_pressure;BME280_temperature;BME280_humidity;BME280_pressure;Samples;Min_cycle;Max_cycle;Signal;HPM_P1;HPM_P2
2024/02/21 00:01:22;;;;;;;18.35;7.40;;;;;;;8.31;75.11;99091.59;5034344;28;20496;-75
2024/02/21 00:03:47;;;;;;;19.20;7.90;;;;;;;8.27;74.99;99088.50;5017532;28;20043;-75
2024/02/21 00:06:12;;;;;;;17.88;7.25;;;;;;;8.30;75.67;99089.97;5017703;28;20401;-75
2024/02/21 00:08:38;;;;;;;19.40;7.90;;;;;;;8.28;75.43;99082.09;5041942;28;20030;-75
2024/02/21 00:11:03;;;;;;;17.15;7.60;;;;;;;8.24;74.90;99072.78;5017466;28;20132;-74
2024/02/21 00:13:29;;;;;;;20.58;7.40;;;;;;;8.25;75.11;99061.03;5033582;28;20033;-75
2024/02/21 00:15:55;;;;;;;16.02;7.15;;;;;;;8.32;75.13;99061.88;5025166;28;20048;-75
2024/02/21 00:18:21;;;;;;;20.90;6.93;;;;;;;8.25;75.87;99055.66;5032926;28;20025;-75
2024/02/21 00:20:46;;;;;;;14.07;6.63;;;;;;;8.29;75.42;99051.56;5014956;28;20041;-76
2024/02/21 00:23:11;;;;;;;15.73;6.80;;;;;;;8.32;75.56;99055.69;5045327;28;20032;-76
2024/02/21 00:25:37;;;;;;;14.80;6.72;;;;;;;8.25;76.09;99038.75;5018906;28;20068;-76
2024/02/21 00:28:03;;;;;;;15.60;6.68;;;;;;;8.21;75.43;99016.84;5018955;28;20089;-76
2024/02/21 00:30:28;;;;;;;14.93;6.75;;;;;;;8.28;75.81;99025.75;5027375;28;20132;-76
2024/02/21 00:32:54;;;;;;;20.83;7.32;;;;;;;8.21;76.24;99011.47;5010585;28;20036;-76
2024/02/21 00:35:19;;;;;;;15.75;6.97;;;;;;;8.23;75.59;99020.19;5051473;28;20444;-75
2024/02/21 00:37:45;;;;;;;14.85;6.47;;;;;;;8.27;75.55;99026.81;5010207;28;20025;-75
2024/02/21 00:40:11;;;;;;;17.40;6.30;;;;;;;8.28;75.52;99017.69;5028985;28;20578;-75
2024/02/21 00:42:36;;;;;;;16.48;7.35;;;;;;;8.29;76.10;99014.00;5016328;28;20030;-76
2024/02/21 00:45:02;;;;;;;18.27;7.15;;;;;;;8.11;75.62;98978.91;5010436;28;20040;-75
2024/02/21 00:47:27;;;;;;;16.00;6.95;;;;;;;8.24;75.97;99002.19;5034907;28;20420;-76
2024/02/21 00:49:53;;;;;;;19.05;7.03;;;;;;;8.25;76.20;99007.38;5018640;28;20032;-76
2024/02/21 00:52:18;;;;;;;15.43;6.60;;;;;;;8.23;75.69;99005.94;5027084;28;20018;-77
2024/02/21 00:54:44;;;;;;;20.50;7.28;;;;;;;8.15;75.91;98996.22;5022652;28;20029;-76
2024/02/21 00:57:09;;;;;;;18.38;7.28;;;;;;;8.15;75.24;99000.78;5026940;28;20025;-76
2024/02/21 00:59:34;;;;;;;15.35;6.60;;;;;;;8.09;76.17;98991.72;5035261;28;20025;-76
2024/02/21 01:02:00;;;;;;;16.33;6.28;;;;;;;8.05;75.21;98982.41;5068971;28;20047;-75
2024/02/21 01:04:25;;;;;;;16.65;7.32;;;;;;;8.22;76.04;98997.06;5043904;28;20086;-76
2024/02/21 01:06:51;;;;;;;13.45;6.95;;;;;;;8.22;75.53;98994.38;5045747;28;20037;-77
2024/02/21 01:09:16;;;;;;;13.23;6.55;;;;;;;8.31;76.00;99001.19;5054367;28;20033;-76
2024/02/21 01:11:42;;;;;;;14.05;6.97;;;;;;;8.15;76.12;98990.88;5036776;28;20021;-76
2024/02/21 01:14:07;;;;;;;16.60;7.05;;;;;;;8.32;75.59;99002.00;5025143;28;20037;-77
2024/02/21 01:16:32;;;;;;;14.48;6.72;;;;;;;8.15;76.20;98966.72;5052853;28;20025;-77
2024/02/21 01:18:58;;;;;;;16.67;7.32;;;;;;;8.22;75.86;98970.22;5033261;28;20041;-74
2024/02/21 01:21:23;;;;;;;17.48;7.28;;;;;;;8.12;75.71;98969.03;5054737;28;20029;-75
2024/02/21 01:23:49;;;;;;;17.25;6.93;;;;;;;8.26;75.82;98987.56;5049280;28;20045;-75
2024/02/21 01:26:15;;;;;;;17.13;7.55;;;;;;;8.22;76.40;98986.31;5061873;28;20022;-75
2024/02/21 01:28:41;;;;;;;18.80;7.22;;;;;;;8.27;76.43;98986.53;5028353;28;20482;-75
2024/02/21 01:31:07;;;;;;;16.52;7.82;;;;;;;8.16;76.17;98954.97;5026848;28;20489;-75
2024/02/21 01:33:34;;;;;;;17.95;7.47;;;;;;;8.23;75.60;98971.88;5051634;28;20076;-75
2024/02/21 01:36:04;;;;;;;22.67;8.02;;;;;;;8.30;76.23;98988.81;5034957;28;20033;-75
2024/02/21 01:38:29;;;;;;;20.33;7.93;;;;;;;8.25;75.79;98977.03;5026938;28;20104;-75
2024/02/21 01:40:56;;;;;;;19.30;7.28;;;;;;;8.09;76.11;98954.16;5051581;28;20037;-75
2024/02/21 01:43:21;;;;;;;18.58;7.88;;;;;;;8.07;75.86;98945.50;5021190;28;20374;-77
2024/02/21 01:45:50;;;;;;;18.77;7.55;;;;;;;8.27;76.39;98965.09;5052391;28;20032;-77
2024/02/21 01:48:17;;;;;;;18.67;7.82;;;;;;;8.15;76.95;98947.13;5020562;28;20044;-77
2024/02/21 01:50:43;;;;;;;16.58;7.32;;;;;;;8.12;76.79;98939.50;5019057;28;20029;-77
2024/02/21 01:53:09;;;;;;;21.35;7.95;;;;;;;8.22;76.77;98950.59;5030012;28;20025;-77
2024/02/21 01:55:34;;;;;;;21.77;8.40;;;;;;;8.19;77.09;98961.78;5030067;28;20029;-76
2024/02/21 01:58:00;;;;;;;17.30;7.40;;;;;;;8.17;76.34;98943.19;5024821;28;20044;-77
2024/02/21 02:00:26;;;;;;;16.33;7.63;;;;;;;8.06;77.03;98927.75;5018776;28;20021;-77
2024/02/21 02:02:51;;;;;;;18.55;8.23;;;;;;;8.18;77.45;98942.16;5027210;28;20104;-78
2024/02/21 02:05:20;;;;;;;15.18;7.50;;;;;;;8.10;77.52;98937.00;5038022;28;20025;-76
2024/02/21 02:07:46;;;;;;;15.93;7.28;;;;;;;8.13;77.86;98955.38;5009090;28;20029;-77
2024/02/21 02:10:12;;;;;;;17.70;7.97;;;;;;;8.11;76.50;98936.00;5037969;28;20029;-75
2024/02/21 02:12:37;;;;;;;15.60;7.68;;;;;;;8.03;76.71;98928.16;5021332;28;20033;-76
2024/02/21 02:15:06;;;;;;;16.75;7.95;;;;;;;8.23;76.93;98953.09;5035992;28;20033;-76
2024/02/21 02:17:32;;;;;;;16.63;7.93;;;;;;;8.28;76.43;98955.19;5033622;28;20112;-76
2024/02/21 02:19:57;;;;;;;18.27;8.55;;;;;;;8.04;76.82;98923.63;5070173;28;20079;-77
2024/02/21 02:22:29;;;;;;;19.10;7.65;;;;;;;8.02;76.87;98904.25;5026623;28;20056;-77
2024/02/21 02:24:55;;;;;;;17.77;8.15;;;;;;;8.23;76.85;98936.16;5025400;28;20056;-76
2024/02/21 02:27:22;;;;;;;18.13;7.72;;;;;;;8.26;77.10;98933.91;5026754;28;20021;-76
2024/02/21 02:29:48;;;;;;;19.60;7.88;;;;;;;8.15;77.29;98913.06;5052759;28;20044;-76
2024/02/21 02:32:14;;;;;;;17.98;7.82;;;;;;;8.24;76.94;98921.69;5053896;28;20029;-76
2024/02/21 02:34:39;;;;;;;16.85;7.50;;;;;;;8.08;76.85;98898.03;5036283;28;20037;-76
2024/02/21 02:37:05;;;;;;;18.88;8.57;;;;;;;8.26;77.03;98925.84;5019939;28;20443;-77
2024/02/21 02:39:30;;;;;;;18.25;7.57;;;;;;;8.17;77.17;98913.69;5007334;28;20555;-76
2024/02/21 02:41:56;;;;;;;23.40;8.07;;;;;;;8.24;76.99;98919.00;5019647;28;20024;-76
2024/02/21 02:44:21;;;;;;;16.50;7.65;;;;;;;8.28;76.84;98905.00;5035202;28;20063;-75
2024/02/21 02:46:47;;;;;;;18.23;8.13;;;;;;;8.14;77.09;98897.19;5034754;28;20057;-76
2024/02/21 02:49:12;;;;;;;16.23;8.07;;;;;;;8.12;77.41;98889.34;5026566;28;20044;-75
2024/02/21 02:51:42;;;;;;;19.27;8.10;;;;;;;8.25;77.36;98900.03;5018483;28;20389;-76
2024/02/21 02:54:07;;;;;;;19.83;8.45;;;;;;;8.17;77.36;98878.81;5033278;28;20056;-75
2024/02/21 02:56:33;;;;;;;19.45;8.23;;;;;;;8.11;78.05;98885.03;5034569;28;20026;-76
2024/02/21 02:58:58;;;;;;;19.33;9.00;;;;;;;7.68;77.27;98822.22;5054203;28;20041;-76
2024/02/21 03:01:24;;;;;;;21.35;8.43;;;;;;;8.14;77.73;98889.97;5034783;28;20166;-75
2024/02/21 03:03:49;;;;;;;19.83;8.95;;;;;;;8.16;78.19;98885.22;5050780;28;20516;-76
2024/02/21 03:06:14;;;;;;;20.73;8.90;;;;;;;8.11;77.88;98876.97;5034915;28;20540;-76
2024/02/21 03:08:40;;;;;;;21.77;8.50;;;;;;;8.19;77.79;98890.13;5015002;28;20033;-76
2024/02/21 03:11:05;;;;;;;19.15;8.15;;;;;;;8.05;77.29;98867.06;5043806;28;20025;-76
2024/02/21 03:13:31;;;;;;;18.33;8.15;;;;;;;8.22;77.95;98879.00;5022688;28;20033;-77
2024/02/21 03:15:57;;;;;;;15.90;7.95;;;;;;;8.24;77.66;98882.28;5014175;28;20038;-75
2024/02/21 03:18:22;;;;;;;19.90;8.73;;;;;;;8.10;77.81;98853.03;5045207;28;20045;-76
2024/02/21 03:20:48;;;;;;;18.48;8.38;;;;;;;8.10;77.74;98847.66;5016703;28;20114;-76
2024/02/21 03:23:13;;;;;;;21.33;8.63;;;;;;;8.08;78.53;98845.19;5044050;28;20497;-75
2024/02/21 03:25:39;;;;;;;22.95;9.00;;;;;;;8.04;79.50;98829.75;5040029;28;20057;-76
2024/02/21 03:28:04;;;;;;;23.27;9.98;;;;;;;8.02;79.37;98819.25;5018120;28;20478;-77
2024/02/21 03:30:29;;;;;;;21.95;9.63;;;;;;;8.14;79.59;98833.63;5032602;28;20028;-76
2024/02/21 03:32:55;;;;;;;19.90;9.18;;;;;;;7.99;79.32;98834.91;5034567;28;20037;-77
2024/02/21 03:35:20;;;;;;;23.88;10.02;;;;;;;7.63;80.45;98788.00;5015915;28;20026;-76
2024/02/21 03:37:46;;;;;;;22.08;10.15;;;;;;;7.99;81.30;98861.75;5034961;28;20033;-76
2024/02/21 03:40:11;;;;;;;22.30;9.65;;;;;;;7.87;81.63;98850.84;5012691;28;20026;-76
2024/02/21 03:42:37;;;;;;;22.60;10.10;;;;;;;7.93;81.48;98863.44;5029855;28;20127;-75
2024/02/21 03:45:04;;;;;;;22.63;9.73;;;;;;;7.95;81.44;98882.81;5010162;28;20112;-76
2024/02/21 03:47:29;;;;;;;20.35;10.27;;;;;;;7.99;82.19;98878.66;5045357;28;20045;-75
2024/02/21 03:49:54;;;;;;;23.80;11.00;;;;;;;7.78;82.92;98838.72;5032253;28;20036;-75
2024/02/21 03:52:20;;;;;;;27.25;10.88;;;;;;;7.77;82.85;98833.56;5000757;28;20064;-75
2024/02/21 03:54:45;;;;;;;21.25;10.13;;;;;;;7.95;83.54;98877.44;5063900;28;20056;-75
2024/02/21 03:57:11;;;;;;;24.45;11.23;;;;;;;7.86;83.37;98862.63;5056790;28;20056;-75
2024/02/21 03:59:36;;;;;;;30.45;10.95;;;;;;;7.89;83.28;98864.88;5023958;28;20037;-75
2024/02/21 04:02:03;;;;;;;24.95;11.38;;;;;;;7.88;84.01;98871.28;5015628;28;20061;-75
2024/02/21 04:04:29;;;;;;;24.50;11.93;;;;;;;7.96;84.03;98872.91;5032037;28;20025;-75
2024/02/21 04:06:54;;;;;;;24.83;11.60;;;;;;;7.86;84.04;98868.00;5015729;28;20072;-77
2024/02/21 04:09:20;;;;;;;22.98;10.77;;;;;;;7.96;83.78;98862.97;5041897;28;20021;-76
2024/02/21 04:11:45;;;;;;;24.13;11.25;;;;;;;7.80;84.54;98842.00;5031895;28;20073;-77
2024/02/21 04:14:11;;;;;;;22.92;11.73;;;;;;;7.60;84.15;98803.72;5031796;28;20053;-74
2024/02/21 04:16:37;;;;;;;28.40;11.50;;;;;;;7.90;84.31;98860.34;5031098;28;20697;-74
2024/02/21 04:19:02;;;;;;;24.35;12.95;;;;;;;7.86;83.97;98846.53;5014794;28;20048;-75
2024/02/21 04:21:27;;;;;;;31.67;14.27;;;;;;;7.87;84.41;98858.06;5032184;28;20041;-74
2024/02/21 04:23:53;;;;;;;29.75;12.85;;;;;;;7.78;83.83;98846.75;5015660;28;20504;-74
2024/02/21 04:26:18;;;;;;;26.75;12.13;;;;;;;7.80;84.67;98842.00;5012626;28;20500;-74
2024/02/21 04:28:45;;;;;;;29.15;12.50;;;;;;;7.84;84.63;98850.47;5049548;28;20026;-74
2024/02/21 04:31:10;;;;;;;26.67;13.85;;;;;;;7.74;84.39;98832.13;5016882;28;20130;-74
2024/02/21 04:33:36;;;;;;;24.63;13.27;;;;;;;7.72;85.06;98836.88;5016162;28;20026;-74
2024/02/21 04:36:02;;;;;;;26.60;12.50;;;;;;;7.73;84.73;98826.97;5024257;28;20033;-74
2024/02/21 04:38:28;;;;;;;25.95;12.50;;;;;;;7.76;84.31;98830.06;4999398;28;20428;-75
2024/02/21 04:40:58;;;;;;;27.65;11.55;;;;;;;7.74;83.69;98832.13;5032517;28;20490;-74
2024/02/21 04:43:24;;;;;;;23.90;12.13;;;;;;;7.63;84.42;98816.69;5036410;28;20052;-75
2024/02/21 04:45:49;;;;;;;26.75;13.32;;;;;;;7.65;84.35;98828.03;5000427;28;20122;-74
2024/02/21 04:48:15;;;;;;;28.05;14.27;;;;;;;7.66;84.60;98835.84;5032952;28;20498;-75
2024/02/21 04:50:41;;;;;;;26.27;13.77;;;;;;;7.66;84.26;98830.50;5016574;28;20038;-75
2024/02/21 04:53:06;;;;;;;22.13;11.73;;;;;;;7.58;84.83;98809.25;5016612;28;20025;-75
2024/02/21 04:55:32;;;;;;;26.85;12.75;;;;;;;7.57;84.83;98814.84;5016340;28;20494;-74
2024/02/21 04:57:57;;;;;;;24.25;11.52;;;;;;;7.55;84.97;98800.84;5032896;28;20037;-76
2024/02/21 05:00:22;;;;;;;27.75;11.40;;;;;;;7.64;84.68;98815.66;5025520;28;20033;-75
2024/02/21 05:02:48;;;;;;;29.15;11.43;;;;;;;7.63;84.71;98805.97;5018089;28;20052;-76
2024/02/21 05:05:15;;;;;;;25.55;11.60;;;;;;;7.62;84.59;98810.50;5033741;28;20180;-75
2024/02/21 05:07:40;;;;;;;21.75;11.45;;;;;;;7.62;84.70;98807.00;5016781;28;20421;-75
2024/02/21 05:10:07;;;;;;;28.77;13.40;;;;;;;7.51;84.59;98796.94;5016461;28;20120;-76
2024/02/21 05:12:32;;;;;;;29.88;13.40;;;;;;;7.58;85.00;98801.22;5016775;28;20116;-76
2024/02/21 05:14:58;;;;;;;23.45;13.15;;;;;;;7.65;84.62;98806.59;5016576;28;20061;-77
2024/02/21 05:17:23;;;;;;;45.47;25.35;;;;;;;7.55;84.76;98790.13;5021105;28;20022;-76
2024/02/21 05:19:49;;;;;;;32.25;19.30;;;;;;;7.41;84.60;98769.75;5032998;28;20410;-75
2024/02/21 05:22:14;;;;;;;23.60;12.05;;;;;;;7.56;84.87;98795.25;5017523;28;20083;-75
2024/02/21 05:24:40;;;;;;;21.25;10.95;;;;;;;7.66;84.15;98813.56;5016995;28;20044;-75
2024/02/21 05:27:10;;;;;;;23.02;11.35;;;;;;;7.69;83.96;98807.81;5019045;28;20055;-75
2024/02/21 05:29:37;;;;;;;22.67;11.38;;;;;;;7.67;83.74;98809.88;5019891;28;20037;-75
2024/02/21 05:32:03;;;;;;;22.52;10.68;;;;;;;7.59;83.72;98794.84;5020905;28;20112;-75
2024/02/21 05:34:30;;;;;;;22.48;11.27;;;;;;;7.64;83.40;98791.53;5035932;28;20124;-75
2024/02/21 05:36:57;;;;;;;22.92;11.50;;;;;;;7.52;84.08;98780.63;5020924;28;20112;-75
2024/02/21 05:39:23;;;;;;;25.40;11.63;;;;;;;7.48;84.20;98768.69;5020126;28;20029;-76
2024/02/21 05:41:49;;;;;;;23.42;12.10;;;;;;;7.30;83.41;98744.44;5041120;28;20105;-75
2024/02/21 05:44:15;;;;;;;30.33;16.60;;;;;;;7.49;83.91;98793.66;5036685;28;20087;-76
2024/02/21 05:46:40;;;;;;;26.42;15.02;;;;;;;7.30;83.84;98791.81;5003673;28;20033;-75
2024/02/21 05:49:06;;;;;;;21.80;13.65;;;;;;;7.30;83.31;98783.78;5011560;28;20492;-76
2024/02/21 05:51:33;;;;;;;33.60;14.13;;;;;;;7.06;83.44;98754.97;5019344;28;20429;-75
2024/02/21 05:53:58;;;;;;;20.92;12.48;;;;;;;7.21;83.60;98787.72;5034323;28;20067;-75
2024/02/21 05:56:24;;;;;;;26.30;12.77;;;;;;;7.03;84.43;98763.41;5001684;28;20025;-75
2024/02/21 05:58:50;;;;;;;24.85;13.95;;;;;;;7.10;84.42;98775.78;5017932;28;20041;-76
2024/02/21 06:01:15;;;;;;;31.48;14.00;;;;;;;7.18;83.70;98791.63;5050418;28;20017;-76
2024/02/21 06:03:41;;;;;;;28.58;13.65;;;;;;;7.13;84.53;98785.25;5017614;28;20041;-76
2024/02/21 06:06:06;;;;;;;27.80;13.63;;;;;;;7.08;84.62;98771.66;5055452;28;20018;-76
2024/02/21 06:08:35;;;;;;;25.38;13.45;;;;;;;6.94;84.24;98750.25;5030261;28;20036;-76
2024/02/21 06:11:00;;;;;;;30.65;14.25;;;;;;;7.14;84.67;98770.84;5053564;28;20025;-76
2024/02/21 06:13:25;;;;;;;24.02;13.85;;;;;;;7.03;85.03;98753.53;5033430;28;20091;-76
2024/02/21 06:15:51;;;;;;;24.15;13.45;;;;;;;7.12;85.23;98762.19;5016944;28;20100;-76
2024/02/21 06:18:20;;;;;;;28.38;13.73;;;;;;;7.17;85.21;98773.91;5033114;28;20245;-76
2024/02/21 06:20:48;;;;;;;34.95;18.23;;;;;;;7.24;84.68;98781.94;5013499;28;20029;-76
2024/02/21 06:23:15;;;;;;;34.45;20.85;;;;;;;7.18;85.54;98780.09;5041743;28;20061;-76
2024/02/21 06:25:41;;;;;;;29.55;19.70;;;;;;;7.28;85.69;98791.22;5033247;28;20025;-76
2024/02/21 06:28:06;;;;;;;41.25;21.30;;;;;;;7.14;85.93;98787.72;5033055;28;20120;-76
2024/02/21 06:30:31;;;;;;;39.20;19.70;;;;;;;7.14;86.17;98784.22;5033354;28;20025;-76
2024/02/21 06:32:57;;;;;;;37.80;21.20;;;;;;;7.13;86.46;98779.88;5016573;28;20133;-77
2024/02/21 06:35:25;;;;;;;39.65;21.08;;;;;;;7.15;86.19;98783.19;5033348;28;20083;-76
2024/02/21 06:37:51;;;;;;;33.47;18.58;;;;;;;7.19;87.50;98795.94;5033397;28;20042;-77
2024/02/21 06:40:23;;;;;;;27.75;15.77;;;;;;;7.18;86.61;98778.25;4996240;28;20026;-76
2024/02/21 06:42:49;;;;;;;29.25;16.38;;;;;;;7.36;85.82;98785.63;5028339;28;20080;-76
2024/02/21 06:45:15;;;;;;;29.25;16.63;;;;;;;7.34;86.49;98776.97;5047985;28;20120;-76
2024/02/21 06:47:40;;;;;;;29.42;17.17;;;;;;;7.22;86.80;98751.84;5000478;28;20218;-76
2024/02/21 06:50:06;;;;;;;25.55;14.93;;;;;;;7.24;86.27;98749.78;5013427;28;20076;-76
2024/02/21 06:52:31;;;;;;;23.52;13.85;;;;;;;7.19;86.56;98745.06;5042970;28;20037;-76
2024/02/21 06:54:57;;;;;;;25.83;13.90;;;;;;;7.36;86.45;98775.72;5017618;28;20025;-76
2024/02/21 06:57:22;;;;;;;25.30;13.07;;;;;;;7.26;87.52;98758.47;5016372;28;20038;-77
2024/02/21 06:59:48;;;;;;;25.23;13.70;;;;;;;7.22;86.94;98741.97;5033142;28;20075;-77
2024/02/21 07:02:13;;;;;;;28.25;14.25;;;;;;;7.35;87.02;98765.22;5016119;28;20481;-76
2024/02/21 07:04:39;;;;;;;27.10;15.25;;;;;;;7.32;87.26;98746.88;5032670;28;20025;-76
2024/02/21 07:07:04;;;;;;;34.08;16.70;;;;;;;7.32;86.89;98757.59;5016020;28;20452;-77
2024/02/21 07:09:31;;;;;;;29.00;15.70;;;;;;;7.55;86.65;98771.34;5015935;28;20112;-77
2024/02/21 07:11:57;;;;;;;25.88;15.65;;;;;;;7.48;86.74;98778.59;5027186;28;20052;-76
2024/02/21 07:14:23;;;;;;;23.40;14.07;;;;;;;7.65;86.73;98779.78;5032211;28;20025;-76
2024/02/21 07:16:48;;;;;;;26.13;13.18;;;;;;;7.59;86.58;98775.25;5032685;28;20030;-77
2024/02/21 07:19:14;;;;;;;25.92;13.20;;;;;;;7.73;86.73;98779.53;5011296;28;20445;-77
2024/02/21 07:21:41;;;;;;;29.17;14.68;;;;;;;7.46;86.22;98751.19;5026312;28;20127;-77
2024/02/21 07:24:06;;;;;;;22.80;13.85;;;;;;;7.52;86.21;98747.66;4997825;28;20017;-77
2024/02/21 07:26:32;;;;;;;24.27;13.35;;;;;;;7.64;86.62;98751.31;5013954;28;20052;-77
2024/02/21 07:28:57;;;;;;;23.27;13.52;;;;;;;7.62;86.26;98737.31;5010859;28;20483;-77
2024/02/21 07:31:22;;;;;;;22.88;13.73;;;;;;;7.65;85.59;98739.56;5025272;28;20055;-77
2024/02/21 07:33:48;;;;;;;26.25;13.18;;;;;;;7.96;84.98;98760.28;5032086;28;20409;-77
2024/02/21 07:36:15;;;;;;;23.80;13.15;;;;;;;7.87;85.38;98738.22;5013181;28;20038;-77
2024/02/21 07:38:41;;;;;;;21.67;12.85;;;;;;;7.77;85.46;98719.09;5000798;28;20021;-77
2024/02/21 07:41:07;;;;;;;25.38;13.18;;;;;;;7.90;85.67;98729.75;5035265;28;20113;-77
2024/02/21 07:43:32;;;;;;;24.30;12.23;;;;;;;7.95;85.56;98711.19;5037733;28;20025;-77
2024/02/21 07:45:57;;;;;;;24.08;12.60;;;;;;;8.06;84.95;98713.16;5016787;28;20034;-77
2024/02/21 07:48:26;;;;;;;25.17;13.25;;;;;;;8.11;84.88;98710.66;5031892;28;20474;-78
2024/02/21 07:50:52;;;;;;;51.80;34.55;;;;;;;8.17;85.27;98733.94;5015713;28;20025;-77
2024/02/21 07:53:17;;;;;;;39.55;25.50;;;;;;;8.24;85.10;98733.88;5026582;28;20505;-77
2024/02/21 07:55:43;;;;;;;40.28;26.13;;;;;;;8.27;85.19;98730.81;5035226;28;20093;-78
2024/02/21 07:58:08;;;;;;;43.05;32.10;;;;;;;8.23;84.49;98722.34;5051720;28;20021;-76
2024/02/21 08:00:34;;;;;;;69.40;48.85;;;;;;;8.33;84.60;98741.50;5014376;28;20033;-76
2024/02/21 08:02:59;;;;;;;46.63;28.33;;;;;;;8.35;84.28;98723.31;5013036;28;20029;-77
2024/02/21 08:05:24;;;;;;;23.13;14.20;;;;;;;8.31;83.94;98716.75;5028739;28;20167;-77
2024/02/21 08:07:50;;;;;;;24.50;12.68;;;;;;;8.40;83.89;98708.44;5032004;28;20061;-77
2024/02/21 08:10:15;;;;;;;43.63;32.00;;;;;;;8.43;83.96;98724.09;5040343;28;20042;-76
2024/02/21 08:12:41;;;;;;;24.00;14.88;;;;;;;8.43;83.94;98702.63;4999169;28;20025;-76
2024/02/21 08:15:08;;;;;;;22.55;12.68;;;;;;;8.46;83.11;98684.22;5031672;28;20037;-76
2024/02/21 08:17:34;;;;;;;20.50;11.63;;;;;;;8.61;83.14;98706.19;4998713;28;20097;-77
2024/02/21 08:19:59;;;;;;;20.60;12.00;;;;;;;8.66;83.14;98705.56;5030063;28;20041;-77
2024/02/21 08:22:24;;;;;;;26.15;13.90;;;;;;;8.82;82.36;98723.78;5014687;28;20116;-77
2024/02/21 08:24:50;;;;;;;25.13;13.18;;;;;;;8.79;82.30;98692.81;5031190;28;20382;-77
2024/02/21 08:27:15;;;;;;;18.02;11.98;;;;;;;9.00;81.84;98716.59;5031228;28;20025;-77
2024/02/21 08:29:40;;;;;;;20.52;11.73;;;;;;;8.98;81.73;98717.84;5039671;28;20042;-77
2024/02/21 08:32:06;;;;;;;21.75;10.48;;;;;;;9.09;81.06;98714.44;5030890;28;20025;-77
2024/02/21 08:34:33;;;;;;;18.30;10.48;;;;;;;8.92;80.92;98718.72;5010481;28;20563;-77
2024/02/21 08:36:59;;;;;;;18.13;10.32;;;;;;;8.96;79.93;98722.63;5030609;28;20029;-77
2024/02/21 08:39:25;;;;;;;20.20;10.25;;;;;;;8.81;80.12;98732.88;5014250;28;20108;-77
2024/02/21 08:41:51;;;;;;;24.83;9.88;;;;;;;8.73;80.67;98708.97;5030773;28;20036;-76
2024/02/21 08:44:16;;;;;;;19.38;10.35;;;;;;;8.80;79.98;98705.19;5030764;28;20077;-77
2024/02/21 08:46:42;;;;;;;17.52;9.90;;;;;;;8.61;80.32;98692.75;5031797;28;20049;-77
2024/02/21 08:49:10;;;;;;;19.98;10.45;;;;;;;8.85;80.88;98717.97;5022026;28;20394;-77
2024/02/21 08:51:35;;;;;;;19.25;10.57;;;;;;;8.74;80.61;98710.63;5012320;28;20025;-77
2024/02/21 08:54:01;;;;;;;18.30;10.50;;;;;;;8.61;80.26;98678.53;5014076;28;20401;-77
2024/02/21 08:56:27;;;;;;;18.52;9.93;;;;;;;8.80;80.89;98704.38;5030565;28;20022;-77
2024/02/21 08:58:52;;;;;;;21.58;11.00;;;;;;;8.73;80.58;98692.88;5020060;28;20030;-77
2024/02/21 09:01:18;;;;;;;22.50;10.77;;;;;;;8.78;80.15;98706.44;5049160;28;20033;-77
2024/02/21 09:03:43;;;;;;;15.52;10.13;;;;;;;8.70;80.79;98679.91;5010490;28;20029;-77
2024/02/21 09:06:10;;;;;;;21.98;11.05;;;;;;;8.80;80.81;98707.88;5032191;28;20469;-76
2024/02/21 09:08:35;;;;;;;21.83;10.43;;;;;;;8.68;80.67;98692.72;5012965;28;20033;-76
2024/02/21 09:11:01;;;;;;;16.45;10.32;;;;;;;8.76;81.10;98695.13;5030775;28;20500;-76
2024/02/21 09:13:27;;;;;;;20.15;10.18;;;;;;;8.77;81.12;98692.22;5014481;28;20041;-76
2024/02/21 09:15:53;;;;;;;21.75;12.43;;;;;;;8.78;80.61;98701.91;5014134;28;20508;-76
2024/02/21 09:18:19;;;;;;;15.73;10.60;;;;;;;8.90;80.92;98708.22;5002022;28;20459;-77
2024/02/21 09:20:44;;;;;;;20.23;10.25;;;;;;;8.66;80.65;98681.38;5013592;28;20029;-77
2024/02/21 09:23:10;;;;;;;19.88;10.35;;;;;;;8.83;81.52;98693.19;5010357;28;20117;-76
2024/02/21 09:25:36;;;;;;;21.40;11.32;;;;;;;8.79;81.02;98682.09;5013800;28;20013;-76
2024/02/21 09:28:02;;;;;;;17.08;8.48;;;;;;;8.83;80.87;98671.72;5010287;28;20038;-76
2024/02/21 09:30:27;;;;;;;20.23;9.68;;;;;;;8.84;80.77;98668.00;5026654;28;20040;-76
2024/02/21 09:32:53;;;;;;;21.63;9.70;;;;;;;9.03;80.11;98672.34;5030090;28;20120;-76
2024/02/21 09:35:18;;;;;;;19.08;8.43;;;;;;;8.61;79.69;98603.38;5030040;28;20021;-76
2024/02/21 09:37:44;;;;;;;15.98;8.90;;;;;;;9.09;79.79;98666.06;5029912;28;20451;-76
2024/02/21 09:40:09;;;;;;;13.77;8.30;;;;;;;9.19;79.89;98669.06;5030116;28;20045;-76
2024/02/21 09:42:37;;;;;;;19.98;8.10;;;;;;;9.32;79.48;98676.16;5023144;28;20041;-76
2024/02/21 09:45:19;;;;;;;16.23;7.70;;;;;;;9.23;78.60;98656.81;4998108;28;20546;-76
2024/02/21 09:47:58;;;;;;;13.88;7.05;;;;;;;9.31;78.45;98664.56;5030189;28;20068;-77
2024/02/21 09:50:24;;;;;;;18.48;7.63;;;;;;;9.16;78.37;98645.31;5031460;28;20099;-77
2024/02/21 09:52:51;;;;;;;15.70;7.15;;;;;;;9.30;77.86;98662.94;5046392;28;20064;-77
2024/02/21 09:55:17;;;;;;;12.77;6.97;;;;;;;9.42;77.92;98666.53;5008030;28;20091;-76
2024/02/21 09:57:44;;;;;;;19.50;9.65;;;;;;;9.67;77.39;98667.22;5013273;28;20032;-76
2024/02/21 10:00:10;;;;;;;13.32;7.05;;;;;;;9.69;76.83;98637.41;5030177;28;20037;-76
2024/02/21 10:02:39;;;;;;;15.07;7.47;;;;;;;9.67;77.06;98642.19;5005812;28;20505;-76
2024/02/21 10:05:08;;;;;;;17.98;7.72;;;;;;;9.80;76.78;98638.53;5004245;28;20025;-76
2024/02/21 10:07:41;;;;;;;13.70;7.28;;;;;;;9.81;77.06;98640.97;5014169;28;20017;-75
2024/02/21 10:10:08;;;;;;;16.63;6.82;;;;;;;9.92;76.35;98639.38;5048216;28;20488;-76
2024/02/21 10:12:33;;;;;;;13.27;6.80;;;;;;;9.79;76.81;98608.09;5041201;28;20030;-76
2024/02/21 10:15:06;;;;;;;17.38;7.05;;;;;;;10.09;75.82;98645.72;5040214;28;20044;-76
2024/02/21 10:17:32;;;;;;;12.15;6.68;;;;;;;10.04;75.41;98632.97;5046474;28;20478;-76
2024/02/21 10:20:10;;;;;;;14.70;6.70;;;;;;;10.00;74.88;98622.91;5043872;28;20030;-75
2024/02/21 10:22:39;;;;;;;14.18;6.63;;;;;;;9.89;75.45;98618.31;5033239;28;20041;-75
2024/02/21 10:25:12;;;;;;;14.68;6.30;;;;;;;9.96;74.33;98619.03;5013577;28;20048;-76
2024/02/21 10:27:38;;;;;;;14.02;6.13;;;;;;;9.80;74.32;98606.25;5029176;28;20046;-77
2024/02/21 10:30:05;;;;;;;13.23;5.63;;;;;;;9.93;74.12;98592.59;5038243;28;20026;-76
2024/02/21 10:32:31;;;;;;;12.43;6.35;;;;;;;10.07;74.47;98607.47;5015059;28;20076;-76
2024/02/21 10:35:04;;;;;;;13.27;5.60;;;;;;;10.22;73.77;98613.28;5014707;28;20051;-76
2024/02/21 10:37:30;;;;;;;15.25;5.95;;;;;;;10.24;73.85;98595.84;5018240;28;20116;-77
2024/02/21 10:39:56;;;;;;;13.75;5.95;;;;;;;10.26;73.39;98587.53;5059146;28;20393;-77
2024/02/21 10:42:22;;;;;;;11.45;4.90;;;;;;;10.25;74.19;98596.66;5014057;28;20048;-76
2024/02/21 10:44:52;;;;;;;12.98;5.13;;;;;;;10.45;73.50;98597.16;5041949;28;20022;-76
2024/02/21 10:47:21;;;;;;;13.07;5.03;;;;;;;10.48;72.25;98569.72;5008845;28;20700;-77
2024/02/21 10:49:49;;;;;;;11.32;5.28;;;;;;;10.52;71.17;98591.63;5031720;28;20025;-77
2024/02/21 10:52:51;;;;;;;15.25;5.32;;;;;;;10.46;71.74;98593.38;5049413;28;20033;-76
2024/02/21 10:55:21;;;;;;;12.05;5.20;;;;;;;10.31;71.79;98582.28;5043965;28;20041;-77
2024/02/21 10:57:47;;;;;;;11.57;4.88;;;;;;;10.34;72.49;98563.75;5032474;28;20084;-77
2024/02/21 11:00:14;;;;;;;12.60;5.10;;;;;;;10.51;71.56;98558.50;5047235;28;20044;-77
2024/02/21 11:02:41;;;;;;;16.73;5.60;;;;;;;10.50;71.68;98562.25;5032351;28;20123;-77
2024/02/21 11:05:06;;;;;;;12.70;4.45;;;;;;;10.69;70.63;98549.50;5015834;28;20393;-77
2024/02/21 11:07:36;;;;;;;12.32;4.50;;;;;;;10.62;71.12;98571.13;5030357;28;20037;-76
2024/02/21 11:10:01;;;;;;;13.00;5.47;;;;;;;10.72;71.33;98562.47;5032396;28;20111;-77
2024/02/21 11:12:27;;;;;;;12.15;4.68;;;;;;;10.69;71.36;98538.72;5032271;28;20404;-79
2024/02/21 11:14:53;;;;;;;10.95;3.88;;;;;;;10.94;70.80;98531.16;5032426;28;20029;-77
2024/02/21 11:17:21;;;;;;;11.35;3.92;;;;;;;10.86;70.25;98529.66;5015412;28;20043;-77
2024/02/21 11:19:47;;;;;;;11.30;4.00;;;;;;;10.60;67.98;98502.41;5016513;28;20393;-77
2024/02/21 11:22:17;;;;;;;9.65;3.70;;;;;;;10.79;68.33;98512.78;5000036;28;20467;-77
2024/02/21 11:25:08;;;;;;;10.25;3.78;;;;;;;10.90;67.46;98528.09;5033395;28;20037;-76